createdAt,value
2019-04-26T00:00:01.771Z,0.00
2019-04-26T00:01:01.643Z,0.00
2019-04-26T00:02:01.713Z,0.00
2019-04-26T00:03:01.625Z,0.00
2019-04-26T00:04:01.696Z,0.00
2019-04-26T00:05:01.601Z,0.00
2019-04-26T00:06:01.608Z,0.00
2019-04-26T00:07:01.590Z,0.00
2019-04-26T00:08:01.621Z,0.00
2019-04-26T00:09:01.554Z,0.00
2019-04-26T00:10:01.638Z,0.00
2019-04-26T00:11:01.539Z,0.00
2019-04-26T00:12:01.577Z,0.00
2019-04-26T00:13:01.508Z,0.00
2019-04-26T00:14:03.609Z,0.00
2019-04-26T00:15:01.497Z,0.00
2019-04-26T00:16:11.692Z,0.00
2019-04-26T00:17:01.488Z,0.00
2019-04-26T00:18:01.485Z,0.00
2019-04-26T00:19:01.439Z,0.00
2019-04-26T00:20:08.980Z,0.00
2019-04-26T00:21:01.420Z,0.00
2019-04-26T00:22:01.441Z,0.00
2019-04-26T00:23:01.395Z,0.00
2019-04-26T00:24:01.423Z,0.00
2019-04-26T00:25:01.373Z,0.00
2019-04-26T00:26:01.439Z,0.00
2019-04-26T00:27:01.370Z,0.00
2019-04-26T00:28:01.504Z,0.00
2019-04-26T00:29:01.329Z,0.00
2019-04-26T00:30:01.372Z,0.00
2019-04-26T00:31:01.309Z,0.00
2019-04-26T00:32:01.411Z,0.00
2019-04-26T00:33:01.283Z,0.00
2019-04-26T00:34:01.287Z,0.00
2019-04-26T00:35:01.262Z,0.00
2019-04-26T00:36:01.301Z,0.00
2019-04-26T00:37:01.254Z,0.00
2019-04-26T00:38:01.315Z,0.00
2019-04-26T00:39:01.219Z,0.00
2019-04-26T00:40:01.229Z,0.00
2019-04-26T00:41:01.195Z,0.00
2019-04-26T00:42:01.273Z,0.00
2019-04-26T00:43:01.173Z,0.00
2019-04-26T00:44:01.254Z,0.00
2019-04-26T00:45:01.151Z,0.00
2019-04-26T00:46:01.166Z,0.00
2019-04-26T00:47:01.141Z,0.00
2019-04-26T00:48:01.179Z,0.00
2019-04-26T00:49:01.104Z,0.00
2019-04-26T00:50:01.194Z,0.00
2019-04-26T00:51:01.087Z,0.00
2019-04-26T00:52:01.135Z,0.00
2019-04-26T00:53:01.059Z,0.00
2019-04-26T00:54:01.125Z,0.00
2019-04-26T00:55:01.042Z,0.00
2019-04-26T00:56:01.131Z,0.00
2019-04-26T00:57:01.019Z,0.00
2019-04-26T00:58:01.077Z,0.00
2019-04-26T00:59:00.993Z,0.00
2019-04-26T01:00:08.030Z,0.00
2019-04-26T01:01:00.974Z,0.00
2019-04-26T01:02:01.070Z,0.00
2019-04-26T01:03:00.964Z,0.00
2019-04-26T01:04:00.981Z,0.00
2019-04-26T01:05:00.925Z,0.00
2019-04-26T01:06:00.996Z,0.00
2019-04-26T01:07:00.904Z,0.00
2019-04-26T01:08:00.938Z,0.00
2019-04-26T01:09:00.881Z,0.00
2019-04-26T01:10:00.920Z,0.00
2019-04-26T01:11:00.858Z,0.00
2019-04-26T01:12:00.938Z,0.00
2019-04-26T01:13:00.850Z,0.00
2019-04-26T01:14:00.845Z,0.00
2019-04-26T01:15:00.813Z,0.00
2019-04-26T01:16:00.859Z,0.00
2019-04-26T01:17:00.791Z,0.00
2019-04-26T01:18:00.907Z,0.00
2019-04-26T01:19:00.770Z,0.00
2019-04-26T01:20:00.785Z,0.00
2019-04-26T01:21:00.748Z,0.00
2019-04-26T01:22:00.797Z,0.00
2019-04-26T01:23:00.740Z,0.00
2019-04-26T01:24:00.815Z,0.00
2019-04-26T01:25:00.706Z,0.00
2019-04-26T01:26:00.732Z,0.00
2019-04-26T01:27:00.682Z,0.00
2019-04-26T01:28:00.768Z,0.00
2019-04-26T01:29:00.664Z,0.00
2019-04-26T01:30:00.750Z,0.00
2019-04-26T01:31:00.641Z,0.00
2019-04-26T01:32:00.663Z,0.00
2019-04-26T01:33:00.632Z,0.00
2019-04-26T01:34:00.675Z,0.00
2019-04-26T01:35:00.595Z,0.00
2019-04-26T01:36:12.382Z,0.00
2019-04-26T01:37:01.572Z,0.00
2019-04-26T01:38:00.632Z,0.00
2019-04-26T01:39:00.553Z,0.00
2019-04-26T01:40:00.610Z,0.00
2019-04-26T01:41:00.532Z,0.00
2019-04-26T01:42:00.624Z,0.00
2019-04-26T01:43:00.536Z,0.00
2019-04-26T01:44:15.490Z,0.00
2019-04-26T01:45:00.487Z,0.00
2019-04-26T01:46:29.053Z,0.00
2019-04-26T01:47:00.466Z,0.00
2019-04-26T01:48:00.470Z,0.00
2019-04-26T01:49:00.471Z,0.00
2019-04-26T01:50:00.434Z,0.00
2019-04-26T01:51:00.485Z,0.00
2019-04-26T01:52:00.413Z,0.00
2019-04-26T01:53:01.455Z,0.00
2019-04-26T01:54:00.394Z,0.00
2019-04-26T01:55:00.410Z,0.00
2019-04-26T01:56:00.368Z,0.00
2019-04-26T01:57:00.425Z,0.00
2019-04-26T01:58:00.361Z,0.00
2019-04-26T01:59:00.438Z,0.00
2019-04-26T02:00:00.332Z,0.00
2019-04-26T02:01:00.349Z,0.00
2019-04-26T02:02:00.304Z,0.00
2019-04-26T02:03:00.393Z,0.00
2019-04-26T02:04:00.283Z,0.00
2019-04-26T02:05:00.372Z,0.00
2019-04-26T02:06:00.265Z,0.00
2019-04-26T02:07:00.283Z,0.00
2019-04-26T02:08:00.256Z,0.00
2019-04-26T02:09:00.297Z,0.00
2019-04-26T02:10:00.217Z,0.00
2019-04-26T02:11:00.310Z,0.00
2019-04-26T02:12:00.197Z,0.00
2019-04-26T02:13:00.261Z,0.00
2019-04-26T02:14:00.175Z,0.00
2019-04-26T02:15:00.236Z,0.00
2019-04-26T02:16:00.155Z,0.00
2019-04-26T02:17:00.255Z,0.00
2019-04-26T02:18:00.169Z,0.00
2019-04-26T02:19:00.165Z,0.00
2019-04-26T02:20:00.109Z,0.00
2019-04-26T02:21:00.177Z,0.00
2019-04-26T02:22:00.087Z,0.00
2019-04-26T02:23:00.188Z,0.00
2019-04-26T02:24:00.083Z,0.00
2019-04-26T02:25:00.100Z,0.00
2019-04-26T02:26:00.045Z,0.00
2019-04-26T02:27:00.113Z,0.00
2019-04-26T02:28:00.024Z,0.00
2019-04-26T02:29:02.108Z,0.00
2019-04-26T02:30:00.005Z,0.00
2019-04-26T02:31:07.011Z,0.00
2019-04-26T02:31:59.992Z,0.00
2019-04-26T02:33:07.043Z,0.00
2019-04-26T02:33:59.970Z,0.00
2019-04-26T02:34:59.967Z,0.00
2019-04-26T02:35:59.937Z,0.00
2019-04-26T02:36:59.993Z,0.00
2019-04-26T02:37:59.914Z,0.00
2019-04-26T02:39:00.024Z,0.00
2019-04-26T02:39:59.894Z,0.00
2019-04-26T02:40:59.906Z,0.00
2019-04-26T02:41:59.870Z,0.00
2019-04-26T02:42:59.917Z,0.00
2019-04-26T02:43:59.863Z,0.00
2019-04-26T02:44:59.955Z,0.00
2019-04-26T02:45:59.843Z,0.00
2019-04-26T02:46:59.841Z,0.00
2019-04-26T02:47:59.804Z,0.00
2019-04-26T02:48:59.893Z,0.00
2019-04-26T02:49:59.783Z,0.00
2019-04-26T02:50:59.870Z,0.00
2019-04-26T02:51:59.766Z,0.00
2019-04-26T02:52:59.785Z,0.00
2019-04-26T02:53:59.751Z,0.00
2019-04-26T02:54:59.795Z,0.00
2019-04-26T02:55:59.716Z,0.00
2019-04-26T02:56:59.807Z,0.00
2019-04-26T02:57:59.695Z,0.00
2019-04-26T02:58:59.750Z,0.00
2019-04-26T02:59:59.671Z,0.00
2019-04-26T03:00:59.733Z,0.00
2019-04-26T03:01:59.651Z,0.00
2019-04-26T03:02:59.746Z,0.00
2019-04-26T03:03:59.661Z,0.00
2019-04-26T03:04:59.664Z,0.00
2019-04-26T03:05:59.606Z,0.00
2019-04-26T03:07:03.304Z,0.00
2019-04-26T03:07:59.584Z,0.00
2019-04-26T03:08:59.617Z,0.00
2019-04-26T03:09:59.561Z,0.00
2019-04-26T03:10:59.599Z,0.00
2019-04-26T03:11:59.541Z,0.00
2019-04-26T03:12:59.611Z,0.00
2019-04-26T03:13:59.534Z,0.00
2019-04-26T03:15:13.865Z,0.00
2019-04-26T03:16:00.498Z,0.00
2019-04-26T03:17:14.486Z,0.00
2019-04-26T03:17:59.472Z,0.00
2019-04-26T03:19:00.514Z,0.00
2019-04-26T03:19:59.450Z,0.00
2019-04-26T03:20:59.460Z,0.00
2019-04-26T03:21:59.431Z,0.00
2019-04-26T03:22:59.479Z,0.00
2019-04-26T03:23:59.670Z,0.00
2019-04-26T03:24:59.489Z,0.00
2019-04-26T03:25:59.396Z,0.00
2019-04-26T03:26:59.399Z,0.00
2019-04-26T03:27:59.368Z,0.00
2019-04-26T03:28:59.455Z,0.00
2019-04-26T03:30:18.929Z,0.00
2019-04-26T03:31:00.344Z,0.00
2019-04-26T03:31:59.334Z,0.00
2019-04-26T03:32:59.445Z,4.00
2019-04-26T03:33:59.487Z,4.00
2019-04-26T03:34:59.457Z,4.00
2019-04-26T03:35:59.375Z,0.00
2019-04-26T03:36:59.269Z,4.00
2019-04-26T03:37:59.270Z,4.00
2019-04-26T03:38:59.252Z,4.00
2019-04-26T03:39:59.286Z,8.00
2019-04-26T03:40:59.220Z,4.00
2019-04-26T03:41:59.303Z,8.00
2019-04-26T03:42:59.205Z,8.00
2019-04-26T03:43:59.248Z,12.00
2019-04-26T03:44:59.176Z,12.00
2019-04-26T03:45:59.228Z,16.00
2019-04-26T03:46:59.154Z,16.00
2019-04-26T03:47:59.241Z,16.00
2019-04-26T03:48:59.171Z,16.00
2019-04-26T03:49:59.150Z,24.00
2019-04-26T03:50:59.108Z,24.00
2019-04-26T03:51:59.173Z,28.00
2019-04-26T03:52:59.094Z,32.00
2019-04-26T03:53:59.175Z,40.00
2019-04-26T03:54:59.076Z,44.00
2019-04-26T03:55:59.087Z,48.00
2019-04-26T03:56:59.042Z,60.00
2019-04-26T03:57:59.099Z,68.00
2019-04-26T03:58:59.023Z,76.00
2019-04-26T04:00:02.528Z,84.00
2019-04-26T04:00:59.000Z,92.00
2019-04-26T04:02:05.989Z,104.00
2019-04-26T04:02:58.977Z,116.00
2019-04-26T04:04:00.986Z,120.00
2019-04-26T04:04:58.982Z,128.00
2019-04-26T04:05:59.982Z,132.00
2019-04-26T04:07:04.887Z,140.00
2019-04-26T04:07:59.989Z,148.00
2019-04-26T04:08:58.910Z,160.00
2019-04-26T04:09:59.006Z,180.00
2019-04-26T04:10:58.889Z,200.00
2019-04-26T04:12:11.312Z,220.00
2019-04-26T04:12:59.866Z,244.00
2019-04-26T04:13:59.020Z,268.00
2019-04-26T04:14:58.876Z,300.00
2019-04-26T04:15:58.918Z,336.00
2019-04-26T04:16:58.821Z,384.00
2019-04-26T04:17:58.828Z,432.00
2019-04-26T04:18:58.799Z,484.00
2019-04-26T04:19:58.872Z,536.00
2019-04-26T04:20:58.777Z,592.00
2019-04-26T04:21:58.874Z,656.00
2019-04-26T04:22:58.760Z,732.00
2019-04-26T04:23:58.767Z,812.00
2019-04-26T04:24:58.745Z,888.00
2019-04-26T04:25:58.792Z,960.00
2019-04-26T04:26:58.711Z,1032.00
2019-04-26T04:27:58.796Z,1104.00
2019-04-26T04:28:58.691Z,1172.00
2019-04-26T04:29:58.737Z,1236.00
2019-04-26T04:30:58.677Z,1292.00
2019-04-26T04:31:58.721Z,1340.00
2019-04-26T04:32:58.651Z,1388.00
2019-04-26T04:33:58.736Z,1436.00
2019-04-26T04:34:58.635Z,1476.00
2019-04-26T04:35:58.646Z,1512.00
2019-04-26T04:36:58.600Z,1556.00
2019-04-26T04:38:08.816Z,1612.00
2019-04-26T04:39:10.965Z,1680.00
2019-04-26T04:39:59.581Z,1748.00
2019-04-26T04:40:58.576Z,1796.00
2019-04-26T04:41:58.545Z,1824.00
2019-04-26T04:42:58.670Z,1832.00
2019-04-26T04:43:58.525Z,1828.00
2019-04-26T04:45:02.029Z,1840.00
2019-04-26T04:45:58.577Z,1864.00
2019-04-26T04:47:22.701Z,1812.00
2019-04-26T04:47:59.482Z,1724.00
2019-04-26T04:49:05.029Z,1628.00
2019-04-26T04:49:58.472Z,1584.00
2019-04-26T04:50:59.469Z,1500.00
2019-04-26T04:51:58.441Z,1440.00
2019-04-26T04:52:58.459Z,1452.00
2019-04-26T04:53:58.414Z,1448.00
2019-04-26T04:55:06.840Z,1228.00
2019-04-26T04:55:59.392Z,1128.00
2019-04-26T04:56:58.486Z,1176.00
2019-04-26T04:57:58.380Z,1316.00
2019-04-26T04:58:58.395Z,1472.00
2019-04-26T04:59:58.361Z,1592.00
2019-04-26T05:00:58.406Z,1672.00
2019-04-26T05:01:58.330Z,1760.00
2019-04-26T05:02:58.422Z,1960.00
2019-04-26T05:03:58.303Z,2216.00
2019-04-26T05:04:58.367Z,2392.00
2019-04-26T05:06:07.212Z,2428.00
2019-04-26T05:06:59.273Z,2464.00
2019-04-26T05:08:06.461Z,2584.00
2019-04-26T05:08:59.251Z,2692.00
2019-04-26T05:09:58.297Z,2840.00
2019-04-26T05:10:58.228Z,3000.00
2019-04-26T05:11:58.286Z,3148.00
2019-04-26T05:12:58.211Z,3284.00
2019-04-26T05:13:58.298Z,3400.00
2019-04-26T05:14:58.190Z,3516.00
2019-04-26T05:15:58.233Z,3676.00
2019-04-26T05:16:58.162Z,3888.00
2019-04-26T05:17:58.217Z,4168.00
2019-04-26T05:18:58.139Z,4404.00
2019-04-26T05:19:58.229Z,4616.00
2019-04-26T05:20:58.142Z,4756.00
2019-04-26T05:21:58.148Z,4864.00
2019-04-26T05:22:58.108Z,4912.00
2019-04-26T05:23:58.156Z,4872.00
2019-04-26T05:24:58.086Z,4852.00
2019-04-26T05:25:58.140Z,4944.00
2019-04-26T05:26:58.083Z,5184.00
2019-04-26T05:28:00.151Z,5072.00
2019-04-26T05:28:58.092Z,5180.00
2019-04-26T05:29:59.120Z,5328.00
2019-04-26T05:30:58.021Z,5328.00
2019-04-26T05:32:05.995Z,5068.00
2019-04-26T05:32:57.985Z,4920.00
2019-04-26T05:34:05.498Z,4620.00
2019-04-26T05:34:57.961Z,4252.00
2019-04-26T05:35:58.998Z,4292.00
2019-04-26T05:36:57.943Z,3584.00
2019-04-26T05:37:57.944Z,3428.00
2019-04-26T05:38:57.923Z,3720.00
2019-04-26T05:39:57.960Z,3440.00
2019-04-26T05:40:57.930Z,3424.00
2019-04-26T05:41:57.980Z,3324.00
2019-04-26T05:42:58.032Z,3256.00
2019-04-26T05:43:58.062Z,3368.00
2019-04-26T05:44:58.945Z,3088.00
2019-04-26T05:45:58.985Z,3004.00
2019-04-26T05:46:57.903Z,3028.00
2019-04-26T05:48:08.254Z,3096.00
2019-04-26T05:48:58.809Z,3212.00
2019-04-26T05:49:58.044Z,3312.00
2019-04-26T05:50:57.921Z,3352.00
2019-04-26T05:51:57.892Z,3368.00
2019-04-26T05:52:57.777Z,3392.00
2019-04-26T05:53:57.856Z,3460.00
2019-04-26T05:54:58.236Z,3544.00
2019-04-26T05:55:58.062Z,3652.00
2019-04-26T05:56:58.392Z,3800.00
2019-04-26T05:57:58.600Z,3972.00
2019-04-26T05:59:00.276Z,4156.00
2019-04-26T05:59:58.840Z,4340.00
2019-04-26T06:00:57.925Z,4524.00
2019-04-26T06:01:58.939Z,4720.00
2019-04-26T06:02:57.655Z,4944.00
2019-04-26T06:03:58.387Z,5144.00
2019-04-26T06:04:57.632Z,5356.00
2019-04-26T06:05:58.561Z,5540.00
2019-04-26T06:06:57.612Z,5772.00
2019-04-26T06:07:58.520Z,6428.00
2019-04-26T06:08:57.592Z,5992.00
2019-04-26T06:09:58.639Z,5776.00
2019-04-26T06:10:57.879Z,5816.00
2019-04-26T06:11:58.699Z,6000.00
2019-04-26T06:12:58.699Z,5804.00
2019-04-26T06:13:57.842Z,5596.00
2019-04-26T06:14:57.531Z,5380.00
2019-04-26T06:16:02.439Z,5180.00
2019-04-26T06:16:57.521Z,5068.00
2019-04-26T06:17:57.501Z,4968.00
2019-04-26T06:18:57.492Z,4960.00
2019-04-26T06:19:57.521Z,5008.00
2019-04-26T06:20:57.479Z,5064.00
2019-04-26T06:22:00.051Z,5088.00
2019-04-26T06:22:58.217Z,5092.00
2019-04-26T06:23:57.861Z,5064.00
2019-04-26T06:24:58.070Z,5036.00
2019-04-26T06:26:00.770Z,5012.00
2019-04-26T06:27:10.337Z,5020.00
2019-04-26T06:27:58.460Z,5088.00
2019-04-26T06:28:57.484Z,5228.00
2019-04-26T06:29:57.359Z,5420.00
2019-04-26T06:30:57.419Z,5640.00
2019-04-26T06:31:57.983Z,5864.00
2019-04-26T06:33:03.257Z,6076.00
2019-04-26T06:33:58.744Z,6228.00
2019-04-26T06:34:57.416Z,6332.00
2019-04-26T06:35:57.404Z,6332.00
2019-04-26T06:36:57.596Z,6264.00
2019-04-26T06:37:57.387Z,6096.00
2019-04-26T06:38:57.804Z,5892.00
2019-04-26T06:39:57.800Z,5712.00
2019-04-26T06:40:58.186Z,5488.00
2019-04-26T06:41:58.276Z,5264.00
2019-04-26T06:42:58.277Z,5068.00
2019-04-26T06:43:58.262Z,4880.00
2019-04-26T06:44:58.294Z,4740.00
2019-04-26T06:45:58.514Z,4632.00
2019-04-26T06:46:57.694Z,4520.00
2019-04-26T06:47:57.186Z,4476.00
2019-04-26T06:48:57.202Z,4472.00
2019-04-26T06:49:57.741Z,4492.00
2019-04-26T06:50:58.376Z,4444.00
2019-04-26T06:51:58.396Z,4368.00
2019-04-26T06:52:58.061Z,4444.00
2019-04-26T06:53:57.249Z,4516.00
2019-04-26T06:54:57.797Z,4548.00
2019-04-26T06:55:58.122Z,4588.00
2019-04-26T06:57:06.431Z,4732.00
2019-04-26T06:57:59.344Z,4840.00
2019-04-26T06:58:57.930Z,5048.00
2019-04-26T06:59:57.520Z,5300.00
2019-04-26T07:00:58.996Z,5588.00
2019-04-26T07:01:57.963Z,5944.00
2019-04-26T07:03:05.686Z,6248.00
2019-04-26T07:03:58.203Z,6492.00
2019-04-26T07:04:57.008Z,6736.00
2019-04-26T07:05:58.796Z,6964.00
2019-04-26T07:06:59.932Z,7080.00
2019-04-26T07:07:56.954Z,7268.00
2019-04-26T07:08:59.622Z,7448.00
2019-04-26T07:09:57.515Z,7348.00
2019-04-26T07:10:58.222Z,7448.00
2019-04-26T07:11:56.911Z,7480.00
2019-04-26T07:12:56.957Z,7624.00
2019-04-26T07:13:56.881Z,7612.00
2019-04-26T07:14:56.983Z,7328.00
2019-04-26T07:15:56.854Z,6908.00
2019-04-26T07:16:58.000Z,6880.00
2019-04-26T07:17:56.836Z,6972.00
2019-04-26T07:18:56.831Z,6932.00
2019-04-26T07:19:58.489Z,6828.00
2019-04-26T07:20:56.910Z,6740.00
2019-04-26T07:21:56.817Z,6696.00
2019-04-26T07:22:56.900Z,6736.00
2019-04-26T07:23:56.787Z,6844.00
2019-04-26T07:24:56.835Z,7052.00
2019-04-26T07:25:56.744Z,7336.00
2019-04-26T07:26:56.779Z,7628.00
2019-04-26T07:28:03.702Z,7828.00
2019-04-26T07:28:57.734Z,7920.00
2019-04-26T07:29:56.844Z,7924.00
2019-04-26T07:30:56.711Z,8128.00
2019-04-26T07:31:56.919Z,8184.00
2019-04-26T07:32:56.690Z,7596.00
2019-04-26T07:33:56.723Z,7052.00
2019-04-26T07:34:56.649Z,6868.00
2019-04-26T07:35:58.945Z,6712.00
2019-04-26T07:36:56.728Z,6972.00
2019-04-26T07:37:56.728Z,7480.00
2019-04-26T07:39:09.020Z,8140.00
2019-04-26T07:39:57.649Z,8808.00
2019-04-26T07:40:56.715Z,9004.00
2019-04-26T07:41:56.610Z,8948.00
2019-04-26T07:42:56.671Z,8844.00
2019-04-26T07:43:56.555Z,8788.00
2019-04-26T07:44:56.604Z,8656.00
2019-04-26T07:45:56.579Z,8752.00
2019-04-26T07:46:56.619Z,9176.00
2019-04-26T07:47:56.520Z,9556.00
2019-04-26T07:48:57.526Z,9336.00
2019-04-26T07:49:56.507Z,8996.00
2019-04-26T07:50:56.525Z,8852.00
2019-04-26T07:51:56.466Z,9324.00
2019-04-26T07:52:56.632Z,9592.00
2019-04-26T07:53:56.448Z,9732.00
2019-04-26T07:54:57.471Z,10088.00
2019-04-26T07:55:56.438Z,10740.00
2019-04-26T07:56:56.538Z,11436.00
2019-04-26T07:57:56.441Z,11908.00
2019-04-26T07:58:56.452Z,12144.00
2019-04-26T07:59:56.421Z,12332.00
2019-04-26T08:00:56.466Z,12600.00
2019-04-26T08:01:56.368Z,13028.00
2019-04-26T08:02:56.411Z,13524.00
2019-04-26T08:03:56.327Z,14004.00
2019-04-26T08:04:56.394Z,13984.00
2019-04-26T08:05:56.322Z,14312.00
2019-04-26T08:06:56.409Z,14456.00
2019-04-26T08:07:56.337Z,14196.00
2019-04-26T08:08:56.334Z,13200.00
2019-04-26T08:09:59.661Z,11628.00
2019-04-26T08:10:56.333Z,10232.00
2019-04-26T08:11:56.238Z,9220.00
2019-04-26T08:12:56.299Z,8396.00
2019-04-26T08:13:56.225Z,7760.00
2019-04-26T08:14:56.276Z,7180.00
2019-04-26T08:15:56.193Z,6616.00
2019-04-26T08:16:56.298Z,6148.00
2019-04-26T08:17:56.187Z,5744.00
2019-04-26T08:18:56.181Z,5320.00
2019-04-26T08:19:57.470Z,4916.00
2019-04-26T08:20:56.203Z,4628.00
2019-04-26T08:22:11.155Z,4536.00
2019-04-26T08:22:57.152Z,4564.00
2019-04-26T08:23:57.715Z,4616.00
2019-04-26T08:24:56.127Z,4636.00
2019-04-26T08:25:56.127Z,4668.00
2019-04-26T08:27:08.107Z,4772.00
2019-04-26T08:27:57.088Z,4900.00
2019-04-26T08:28:56.651Z,5024.00
2019-04-26T08:29:56.044Z,5216.00
2019-04-26T08:31:04.738Z,5544.00
2019-04-26T08:31:57.851Z,6028.00
2019-04-26T08:32:56.103Z,6568.00
2019-04-26T08:33:55.995Z,6956.00
2019-04-26T08:34:57.008Z,7096.00
2019-04-26T08:35:55.973Z,7012.00
2019-04-26T08:36:57.250Z,6732.00
2019-04-26T08:37:57.461Z,6472.00
2019-04-26T08:38:56.025Z,6204.00
2019-04-26T08:39:55.970Z,5752.00
2019-04-26T08:40:56.025Z,5268.00
2019-04-26T08:41:55.907Z,4856.00
2019-04-26T08:42:57.383Z,4804.00
2019-04-26T08:43:55.914Z,4948.00
2019-04-26T08:44:55.949Z,5236.00
2019-04-26T08:46:02.973Z,5564.00
2019-04-26T08:46:57.065Z,5880.00
2019-04-26T08:47:55.860Z,6008.00
2019-04-26T08:48:58.180Z,5952.00
2019-04-26T08:49:55.819Z,5708.00
2019-04-26T08:50:55.812Z,5392.00
2019-04-26T08:51:56.154Z,4984.00
2019-04-26T08:52:57.843Z,4532.00
2019-04-26T08:53:55.778Z,4236.00
2019-04-26T08:54:55.816Z,4120.00
2019-04-26T08:55:55.756Z,4120.00
2019-04-26T08:56:55.827Z,4188.00
2019-04-26T08:57:55.745Z,4220.00
2019-04-26T08:58:55.739Z,4120.00
2019-04-26T08:59:55.708Z,4000.00
2019-04-26T09:00:55.755Z,3792.00
2019-04-26T09:01:55.686Z,3596.00
2019-04-26T09:02:55.805Z,3460.00
2019-04-26T09:03:55.672Z,3328.00
2019-04-26T09:04:55.678Z,3180.00
2019-04-26T09:05:55.643Z,3040.00
2019-04-26T09:06:55.696Z,2884.00
2019-04-26T09:07:57.580Z,2704.00
2019-04-26T09:08:55.725Z,2532.00
2019-04-26T09:09:57.379Z,2356.00
2019-04-26T09:10:55.616Z,2232.00
2019-04-26T09:11:59.874Z,2140.00
2019-04-26T09:12:55.662Z,1996.00
2019-04-26T09:13:55.555Z,1888.00
2019-04-26T09:14:55.644Z,1828.00
2019-04-26T09:15:55.561Z,1792.00
2019-04-26T09:17:02.522Z,1752.00
2019-04-26T09:17:55.511Z,1704.00
2019-04-26T09:18:59.548Z,1672.00
2019-04-26T09:19:58.084Z,1668.00
2019-04-26T09:20:56.504Z,1688.00
2019-04-26T09:21:55.469Z,1716.00
2019-04-26T09:22:56.663Z,1752.00
2019-04-26T09:23:56.457Z,1788.00
2019-04-26T09:24:59.510Z,1828.00
2019-04-26T09:25:59.374Z,1860.00
2019-04-26T09:26:55.520Z,1888.00
2019-04-26T09:27:55.400Z,1912.00
2019-04-26T09:28:56.554Z,1972.00
2019-04-26T09:29:55.376Z,2104.00
2019-04-26T09:30:55.451Z,2324.00
2019-04-26T09:31:55.434Z,2568.00
2019-04-26T09:32:58.244Z,2856.00
2019-04-26T09:33:56.345Z,3124.00
2019-04-26T09:34:55.373Z,3400.00
2019-04-26T09:35:55.314Z,3680.00
2019-04-26T09:36:55.385Z,3912.00
2019-04-26T09:37:55.297Z,4008.00
2019-04-26T09:38:55.328Z,4096.00
2019-04-26T09:39:55.267Z,4392.00
2019-04-26T09:40:56.308Z,4872.00
2019-04-26T09:41:55.246Z,5396.00
2019-04-26T09:42:55.322Z,5808.00
2019-04-26T09:43:58.934Z,6040.00
2019-04-26T09:44:56.938Z,6092.00
2019-04-26T09:45:55.201Z,5940.00
2019-04-26T09:46:55.253Z,5632.00
2019-04-26T09:47:55.188Z,5292.00
2019-04-26T09:48:55.294Z,4984.00
2019-04-26T09:49:55.162Z,4752.00
2019-04-26T09:50:55.173Z,4644.00
2019-04-26T09:51:55.134Z,4664.00
2019-04-26T09:52:55.188Z,4788.00
2019-04-26T09:53:55.126Z,4992.00
2019-04-26T09:54:55.201Z,5164.00
2019-04-26T09:55:55.091Z,5324.00
2019-04-26T09:56:55.113Z,5548.00
2019-04-26T09:57:57.032Z,5896.00
2019-04-26T09:58:56.182Z,6340.00
2019-04-26T09:59:55.045Z,6764.00
2019-04-26T10:00:55.146Z,7300.00
2019-04-26T10:01:55.399Z,7644.00
2019-04-26T10:03:05.448Z,7792.00
2019-04-26T10:03:56.018Z,7932.00
2019-04-26T10:05:01.539Z,8024.00
2019-04-26T10:05:55.873Z,8104.00
2019-04-26T10:06:59.473Z,8100.00
2019-04-26T10:07:54.957Z,8188.00
2019-04-26T10:08:55.023Z,8408.00
2019-04-26T10:09:56.402Z,8820.00
2019-04-26T10:10:55.005Z,9416.00
2019-04-26T10:11:54.916Z,10116.00
2019-04-26T10:12:54.916Z,10860.00
2019-04-26T10:13:54.902Z,11420.00
2019-04-26T10:14:54.932Z,11700.00
2019-04-26T10:15:58.189Z,11928.00
2019-04-26T10:16:55.966Z,12240.00
2019-04-26T10:17:54.848Z,12900.00
2019-04-26T10:18:58.202Z,14132.00
2019-04-26T10:19:54.821Z,16512.00
2019-04-26T10:20:54.877Z,17344.00
2019-04-26T10:21:54.802Z,17920.00
2019-04-26T10:22:54.881Z,15808.00
2019-04-26T10:23:54.798Z,13608.00
2019-04-26T10:24:54.792Z,12308.00
2019-04-26T10:25:54.757Z,11372.00
2019-04-26T10:26:55.512Z,10912.00
2019-04-26T10:27:54.734Z,10916.00
2019-04-26T10:28:54.749Z,11436.00
2019-04-26T10:29:56.156Z,12536.00
2019-04-26T10:30:55.701Z,13964.00
2019-04-26T10:31:54.738Z,14872.00
2019-04-26T10:32:58.108Z,15284.00
2019-04-26T10:33:54.782Z,15312.00
2019-04-26T10:34:54.658Z,15060.00
2019-04-26T10:35:56.732Z,14652.00
2019-04-26T10:36:56.935Z,13924.00
2019-04-26T10:37:54.680Z,12504.00
2019-04-26T10:38:58.292Z,11960.00
2019-04-26T10:39:54.691Z,11640.00
2019-04-26T10:40:54.595Z,10960.00
2019-04-26T10:41:54.607Z,9880.00
2019-04-26T10:42:54.569Z,8932.00
2019-04-26T10:43:54.621Z,9204.00
2019-04-26T10:44:54.563Z,10116.00
2019-04-26T10:46:02.517Z,10044.00
2019-04-26T10:46:55.720Z,10488.00
2019-04-26T10:47:56.588Z,10728.00
2019-04-26T10:48:54.504Z,9804.00
2019-04-26T10:49:58.285Z,9616.00
2019-04-26T10:50:54.481Z,9220.00
2019-04-26T10:51:55.500Z,8616.00
2019-04-26T10:52:55.725Z,7984.00
2019-04-26T10:53:54.484Z,7436.00
2019-04-26T10:54:54.454Z,7120.00
2019-04-26T10:55:54.493Z,7144.00
2019-04-26T10:56:54.996Z,6876.00
2019-04-26T10:57:54.506Z,6516.00
2019-04-26T10:58:54.395Z,6224.00
2019-04-26T10:59:54.449Z,5940.00
2019-04-26T11:00:54.385Z,5644.00
2019-04-26T11:01:54.436Z,5528.00
2019-04-26T11:02:54.351Z,5696.00
2019-04-26T11:03:54.446Z,6100.00
2019-04-26T11:04:54.348Z,6444.00
2019-04-26T11:05:55.356Z,6832.00
2019-04-26T11:06:54.310Z,7164.00
2019-04-26T11:07:54.371Z,7380.00
2019-04-26T11:08:54.286Z,7464.00
2019-04-26T11:09:54.313Z,7340.00
2019-04-26T11:10:54.263Z,7100.00
2019-04-26T11:11:54.296Z,6744.00
2019-04-26T11:12:54.239Z,6340.00
2019-04-26T11:13:54.321Z,6080.00
2019-04-26T11:14:56.979Z,5888.00
2019-04-26T11:15:54.221Z,5808.00
2019-04-26T11:16:54.195Z,6040.00
2019-04-26T11:17:54.239Z,6280.00
2019-04-26T11:18:57.211Z,6248.00
2019-04-26T11:19:55.201Z,6276.00
2019-04-26T11:20:54.153Z,6256.00
2019-04-26T11:21:54.782Z,6184.00
2019-04-26T11:22:54.170Z,6224.00
2019-04-26T11:23:54.174Z,5980.00
2019-04-26T11:24:55.046Z,5340.00
2019-04-26T11:25:54.194Z,4980.00
2019-04-26T11:26:54.086Z,5100.00
2019-04-26T11:27:54.101Z,5268.00
2019-04-26T11:28:55.763Z,5564.00
2019-04-26T11:29:54.327Z,6064.00
2019-04-26T11:30:57.202Z,6584.00
2019-04-26T11:31:54.278Z,7188.00
2019-04-26T11:32:54.015Z,7780.00
2019-04-26T11:34:04.678Z,8312.00
2019-04-26T11:34:58.778Z,8820.00
2019-04-26T11:35:55.998Z,9408.00
2019-04-26T11:36:53.974Z,9964.00
2019-04-26T11:37:56.645Z,10276.00
2019-04-26T11:38:53.954Z,10228.00
2019-04-26T11:39:54.080Z,9908.00
2019-04-26T11:41:06.019Z,9540.00
2019-04-26T11:41:54.914Z,9156.00
2019-04-26T11:42:53.998Z,8796.00
2019-04-26T11:43:54.509Z,8472.00
2019-04-26T11:45:05.433Z,8108.00
2019-04-26T11:46:04.069Z,7576.00
2019-04-26T11:46:54.857Z,6752.00
2019-04-26T11:47:56.216Z,5912.00
2019-04-26T11:48:59.093Z,5348.00
2019-04-26T11:49:54.916Z,5012.00
2019-04-26T11:50:53.822Z,4792.00
2019-04-26T11:51:53.857Z,4656.00
2019-04-26T11:52:53.795Z,4628.00
2019-04-26T11:53:53.870Z,4832.00
2019-04-26T11:54:55.127Z,5356.00
2019-04-26T11:55:53.787Z,6020.00
2019-04-26T11:56:53.751Z,6784.00
2019-04-26T11:57:53.797Z,7704.00
2019-04-26T11:58:56.894Z,8796.00
2019-04-26T11:59:53.837Z,9944.00
2019-04-26T12:00:53.750Z,10876.00
2019-04-26T12:01:53.719Z,11368.00
2019-04-26T12:02:53.686Z,11324.00
2019-04-26T12:03:55.636Z,10720.00
2019-04-26T12:04:55.138Z,9328.00
2019-04-26T12:05:53.745Z,7740.00
2019-04-26T12:06:53.645Z,6652.00
2019-04-26T12:07:53.659Z,6236.00
2019-04-26T12:08:53.619Z,6292.00
2019-04-26T12:09:53.684Z,6620.00
2019-04-26T12:10:53.615Z,7212.00
2019-04-26T12:12:03.918Z,8008.00
2019-04-26T12:13:05.169Z,8876.00
2019-04-26T12:13:55.460Z,9616.00
2019-04-26T12:14:55.651Z,10208.00
2019-04-26T12:15:53.562Z,10556.00
2019-04-26T12:17:14.613Z,10488.00
2019-04-26T12:17:58.629Z,9968.00
2019-04-26T12:18:54.552Z,9204.00
2019-04-26T12:19:53.499Z,8484.00
2019-04-26T12:20:57.170Z,8168.00
2019-04-26T12:21:54.480Z,8332.00
2019-04-26T12:22:55.501Z,8844.00
2019-04-26T12:23:55.588Z,9540.00
2019-04-26T12:24:53.471Z,10340.00
2019-04-26T12:25:53.448Z,10936.00